METAR AND TAF INFORMATION
METAR FOR PAQT
ADDS - METARS form results

(0755 UTC 17 October 2019)
Data provider http://aviationweather.gov/metar/data/
 
METAR text: PAQT 170742Z AUTO 07014KT 10SM SCT016 M02/M03 A2945 RMK AO2 T10221033 TSNO
Conditions at: PAQT (NUIQSUT , AK, US) observed 0742 UTC 17 October 2019
Temperature: -2.2°C (28°F)
Dewpoint: -3.3°C (26°F) [RH = 92%]
Pressure (altimeter): 29.45 inches Hg (997.4 mb)
Winds: from the ENE (70 degrees) at 16 MPH (14 knots; 7.2 m/s)
Visibility: 10 or more miles (16+ km)
Ceiling: at least 12,000 feet AGL
Clouds: scattered clouds at 1600 feet AGL
Weather: automated observation with no human augmentation;
there may or may not be significant weather present at this time

METAR text: PAQT 170735Z AUTO 07013KT 10SM BKN016 M02/M03 A2945 RMK AO2 T10221033 TSNO
Conditions at: PAQT (NUIQSUT , AK, US) observed 0735 UTC 17 October 2019
Temperature: -2.2°C (28°F)
Dewpoint: -3.3°C (26°F) [RH = 92%]
Pressure (altimeter): 29.45 inches Hg (997.4 mb)
Winds: from the ENE (70 degrees) at 15 MPH (13 knots; 6.7 m/s)
Visibility: 10 or more miles (16+ km)
Ceiling: 1600 feet AGL
Clouds: broken clouds at 1600 feet AGL
Weather: automated observation with no human augmentation;
there may or may not be significant weather present at this time

Forecast for: PAQT (NUIQSUT , AK, US)
Text: PAQT 170526Z 1706/1806 07011KT P6SM SCT015
Forecast period: 0600 to 1500 UTC 17 October 2019
Forecast type: FROM: standard forecast or significant change
Winds: from the ENE (70 degrees) at 13 MPH (11 knots; 5.7 m/s)
Visibility: 6 or more miles 10+ km)
Ceiling: at least 12,000 feet AGL
Clouds: scattered clouds at 1500 feet AGL
Weather: no significant weather forecast for this period
Text: FM171500 10022KT P6SM BKN010
Forecast period: 1500 UTC 17 October 2019 to 0600 UTC 18 October 2019
Forecast type: FROM: standard forecast or significant change
Winds: from the E (100 degrees) at 25 MPH (22 knots; 11.3 m/s)
Visibility: 6 or more miles 10+ km)
Ceiling: 1000 feet AGL
Clouds: broken clouds at 1000 feet AGL
Weather: no significant weather forecast for this period

 AIRPORT MAP

 RUNWAY INFORMATION
Runway 04 Runway length 4343 ft Runway width 90 ft
Runway elevation 38 ft Runway displaced threshold 0 ft Runway heading 70
Runway 22 Runway length 4343 ft Runway width 90 ft
Runway elevation 38 ft Runway displaced threshold 0 ft Runway heading 250

 AIRPORT FREQUENCIES
Type A/D Name ANCHORAGE Frequency 119.4 MHZ
Type ASOS Name ASOS Frequency 122.5 MHZ
Type CTAF Name CTAF Frequency 122.8 MHZ
Type FSS Name DEADHORSE Frequency 122.5 MHZ

 AIRPORT NEAR NAVIGATION AIDS



We are a FlightSim virtual group and are in no way affiliated with RavnAir Group.

Powered by Virtual Airlines Manager [v2.6.2]